sensor_id;sensor_type;location;lat;lon;timestamp;temperature;humidity
21612;DHT22;47005;52.292;13.452;2023-08-07T00:00:14;16.30;99.90
21612;DHT22;47005;52.292;13.452;2023-08-07T00:02:40;16.30;99.90
21612;DHT22;47005;52.292;13.452;2023-08-07T00:05:06;16.30;99.90
21612;DHT22;47005;52.292;13.452;2023-08-07T00:07:31;16.20;99.90
21612;DHT22;47005;52.292;13.452;2023-08-07T00:09:57;16.20;99.90
21612;DHT22;47005;52.292;13.452;2023-08-07T00:12:23;16.20;99.90
21612;DHT22;47005;52.292;13.452;2023-08-07T00:14:51;16.20;99.90
21612;DHT22;47005;52.292;13.452;2023-08-07T00:17:17;16.20;99.90
21612;DHT22;47005;52.292;13.452;2023-08-07T00:19:42;16.20;99.90
21612;DHT22;47005;52.292;13.452;2023-08-07T00:22:08;16.10;99.90
21612;DHT22;47005;52.292;13.452;2023-08-07T00:24:34;16.10;99.90
21612;DHT22;47005;52.292;13.452;2023-08-07T00:27:00;16.10;99.90
21612;DHT22;47005;52.292;13.452;2023-08-07T00:29:26;16.10;99.90
21612;DHT22;47005;52.292;13.452;2023-08-07T00:31:52;16.10;99.90
21612;DHT22;47005;52.292;13.452;2023-08-07T00:34:17;16.10;99.90
21612;DHT22;47005;52.292;13.452;2023-08-07T00:36:43;16.10;99.90
21612;DHT22;47005;52.292;13.452;2023-08-07T00:39:09;16.00;99.90
21612;DHT22;47005;52.292;13.452;2023-08-07T00:41:34;16.10;99.90
21612;DHT22;47005;52.292;13.452;2023-08-07T00:44:00;16.00;99.90
21612;DHT22;47005;52.292;13.452;2023-08-07T00:46:27;16.00;99.90
21612;DHT22;47005;52.292;13.452;2023-08-07T00:48:53;16.00;99.90
21612;DHT22;47005;52.292;13.452;2023-08-07T00:51:20;16.00;99.90
21612;DHT22;47005;52.292;13.452;2023-08-07T00:53:46;16.00;99.90
21612;DHT22;47005;52.292;13.452;2023-08-07T00:56:13;16.00;99.90
21612;DHT22;47005;52.292;13.452;2023-08-07T00:58:39;16.00;99.90
21612;DHT22;47005;52.292;13.452;2023-08-07T01:01:05;16.00;99.90
21612;DHT22;47005;52.292;13.452;2023-08-07T01:03:31;16.00;99.90
21612;DHT22;47005;52.292;13.452;2023-08-07T01:05:57;16.00;99.90
21612;DHT22;47005;52.292;13.452;2023-08-07T01:08:26;16.00;99.90
21612;DHT22;47005;52.292;13.452;2023-08-07T01:13:40;15.90;99.90
21612;DHT22;47005;52.292;13.452;2023-08-07T01:16:15;16.00;99.90
21612;DHT22;47005;52.292;13.452;2023-08-07T01:18:45;15.90;99.90
21612;DHT22;47005;52.292;13.452;2023-08-07T01:21:18;15.90;99.90
21612;DHT22;47005;52.292;13.452;2023-08-07T01:23:46;15.90;99.90
21612;DHT22;47005;52.292;13.452;2023-08-07T01:26:13;15.90;99.90
21612;DHT22;47005;52.292;13.452;2023-08-07T01:28:44;15.90;99.90
21612;DHT22;47005;52.292;13.452;2023-08-07T01:31:14;15.90;99.90
21612;DHT22;47005;52.292;13.452;2023-08-07T01:34:02;15.90;99.90
21612;DHT22;47005;52.292;13.452;2023-08-07T01:36:29;15.90;99.90
21612;DHT22;47005;52.292;13.452;2023-08-07T01:38:57;15.90;99.90
21612;DHT22;47005;52.292;13.452;2023-08-07T01:41:24;15.90;99.90
21612;DHT22;47005;52.292;13.452;2023-08-07T01:43:51;15.90;99.90
21612;DHT22;47005;52.292;13.452;2023-08-07T01:46:17;15.90;99.90
21612;DHT22;47005;52.292;13.452;2023-08-07T01:48:43;15.90;99.90
21612;DHT22;47005;52.292;13.452;2023-08-07T01:51:09;15.90;99.90
21612;DHT22;47005;52.292;13.452;2023-08-07T01:53:34;15.90;99.90
21612;DHT22;47005;52.292;13.452;2023-08-07T01:56:00;15.90;99.90
21612;DHT22;47005;52.292;13.452;2023-08-07T01:58:25;15.90;99.90
21612;DHT22;47005;52.292;13.452;2023-08-07T02:00:52;15.90;99.90
21612;DHT22;47005;52.292;13.452;2023-08-07T02:03:18;15.90;99.90
21612;DHT22;47005;52.292;13.452;2023-08-07T02:05:47;15.90;99.90
21612;DHT22;47005;52.292;13.452;2023-08-07T02:08:13;15.90;99.90
21612;DHT22;47005;52.292;13.452;2023-08-07T02:10:39;15.90;99.90
21612;DHT22;47005;52.292;13.452;2023-08-07T02:13:11;15.90;99.90
21612;DHT22;47005;52.292;13.452;2023-08-07T02:15:37;15.90;99.90
21612;DHT22;47005;52.292;13.452;2023-08-07T02:18:03;15.90;99.90
21612;DHT22;47005;52.292;13.452;2023-08-07T02:20:28;15.90;99.90
21612;DHT22;47005;52.292;13.452;2023-08-07T02:22:54;15.90;99.90
21612;DHT22;47005;52.292;13.452;2023-08-07T02:25:20;15.90;99.90
21612;DHT22;47005;52.292;13.452;2023-08-07T02:27:45;15.90;99.90
21612;DHT22;47005;52.292;13.452;2023-08-07T02:30:11;15.90;99.90
21612;DHT22;47005;52.292;13.452;2023-08-07T02:32:37;15.90;99.90
21612;DHT22;47005;52.292;13.452;2023-08-07T02:35:03;15.90;99.90
21612;DHT22;47005;52.292;13.452;2023-08-07T02:37:29;15.90;99.90
21612;DHT22;47005;52.292;13.452;2023-08-07T02:39:54;15.90;99.90
21612;DHT22;47005;52.292;13.452;2023-08-07T02:42:20;15.90;99.90
21612;DHT22;47005;52.292;13.452;2023-08-07T02:44:46;15.90;99.90
21612;DHT22;47005;52.292;13.452;2023-08-07T02:47:11;15.90;99.90
21612;DHT22;47005;52.292;13.452;2023-08-07T02:49:37;15.90;99.90
21612;DHT22;47005;52.292;13.452;2023-08-07T02:52:03;15.90;99.90
21612;DHT22;47005;52.292;13.452;2023-08-07T02:54:28;15.90;99.90
21612;DHT22;47005;52.292;13.452;2023-08-07T02:56:54;15.90;99.90
21612;DHT22;47005;52.292;13.452;2023-08-07T02:59:19;15.90;99.90
21612;DHT22;47005;52.292;13.452;2023-08-07T03:01:45;15.90;99.90
21612;DHT22;47005;52.292;13.452;2023-08-07T03:04:11;15.80;99.90
21612;DHT22;47005;52.292;13.452;2023-08-07T03:06:36;15.90;99.90
21612;DHT22;47005;52.292;13.452;2023-08-07T03:09:02;15.90;99.90
21612;DHT22;47005;52.292;13.452;2023-08-07T03:11:28;15.90;99.90
21612;DHT22;47005;52.292;13.452;2023-08-07T03:13:53;15.90;99.90
21612;DHT22;47005;52.292;13.452;2023-08-07T03:16:19;15.90;99.90
21612;DHT22;47005;52.292;13.452;2023-08-07T03:18:44;15.80;99.90
21612;DHT22;47005;52.292;13.452;2023-08-07T03:21:10;15.80;99.90
21612;DHT22;47005;52.292;13.452;2023-08-07T03:23:36;15.80;99.90
21612;DHT22;47005;52.292;13.452;2023-08-07T03:26:03;15.80;99.90
21612;DHT22;47005;52.292;13.452;2023-08-07T03:28:29;15.80;99.90
21612;DHT22;47005;52.292;13.452;2023-08-07T03:30:55;15.80;99.90
21612;DHT22;47005;52.292;13.452;2023-08-07T03:33:20;15.80;99.90
21612;DHT22;47005;52.292;13.452;2023-08-07T03:35:46;15.80;99.90
21612;DHT22;47005;52.292;13.452;2023-08-07T03:38:11;15.80;99.90
21612;DHT22;47005;52.292;13.452;2023-08-07T03:40:37;15.80;99.90
21612;DHT22;47005;52.292;13.452;2023-08-07T03:43:03;15.80;99.90
21612;DHT22;47005;52.292;13.452;2023-08-07T03:45:28;15.80;99.90
21612;DHT22;47005;52.292;13.452;2023-08-07T03:47:54;15.80;99.90
21612;DHT22;47005;52.292;13.452;2023-08-07T03:50:19;15.80;99.90
21612;DHT22;47005;52.292;13.452;2023-08-07T03:52:45;15.80;99.90
21612;DHT22;47005;52.292;13.452;2023-08-07T03:55:11;15.80;99.90
21612;DHT22;47005;52.292;13.452;2023-08-07T03:57:36;15.80;99.90
21612;DHT22;47005;52.292;13.452;2023-08-07T04:00:02;15.90;99.90
21612;DHT22;47005;52.292;13.452;2023-08-07T04:02:28;15.80;99.90
21612;DHT22;47005;52.292;13.452;2023-08-07T04:04:54;15.80;99.90
21612;DHT22;47005;52.292;13.452;2023-08-07T04:07:20;15.80;99.90
21612;DHT22;47005;52.292;13.452;2023-08-07T04:09:45;15.80;99.90
21612;DHT22;47005;52.292;13.452;2023-08-07T04:12:11;15.90;99.90
21612;DHT22;47005;52.292;13.452;2023-08-07T04:14:37;15.80;99.90
21612;DHT22;47005;52.292;13.452;2023-08-07T04:17:02;15.80;99.90
21612;DHT22;47005;52.292;13.452;2023-08-07T04:19:28;15.80;99.90
21612;DHT22;47005;52.292;13.452;2023-08-07T04:21:54;15.80;99.90
21612;DHT22;47005;52.292;13.452;2023-08-07T04:24:19;15.80;99.90
21612;DHT22;47005;52.292;13.452;2023-08-07T04:26:45;15.80;99.90
21612;DHT22;47005;52.292;13.452;2023-08-07T04:29:10;15.80;99.90
21612;DHT22;47005;52.292;13.452;2023-08-07T04:31:36;15.80;99.90
21612;DHT22;47005;52.292;13.452;2023-08-07T04:34:02;15.80;99.90
21612;DHT22;47005;52.292;13.452;2023-08-07T04:36:28;15.80;99.90
21612;DHT22;47005;52.292;13.452;2023-08-07T04:38:53;15.80;99.90
21612;DHT22;47005;52.292;13.452;2023-08-07T04:41:21;15.80;99.90
21612;DHT22;47005;52.292;13.452;2023-08-07T04:43:46;15.80;99.90
21612;DHT22;47005;52.292;13.452;2023-08-07T04:46:13;15.80;99.90
21612;DHT22;47005;52.292;13.452;2023-08-07T04:48:40;15.80;99.90
21612;DHT22;47005;52.292;13.452;2023-08-07T04:51:05;15.80;99.90
21612;DHT22;47005;52.292;13.452;2023-08-07T04:53:31;15.80;99.90
21612;DHT22;47005;52.292;13.452;2023-08-07T04:55:58;15.80;99.90
21612;DHT22;47005;52.292;13.452;2023-08-07T04:58:24;15.80;99.90
21612;DHT22;47005;52.292;13.452;2023-08-07T05:00:58;15.80;99.90
21612;DHT22;47005;52.292;13.452;2023-08-07T05:03:24;15.80;99.90
21612;DHT22;47005;52.292;13.452;2023-08-07T05:05:50;15.80;99.90
21612;DHT22;47005;52.292;13.452;2023-08-07T05:08:17;15.80;99.90
21612;DHT22;47005;52.292;13.452;2023-08-07T05:10:42;15.80;99.90
21612;DHT22;47005;52.292;13.452;2023-08-07T05:13:08;15.80;99.90
21612;DHT22;47005;52.292;13.452;2023-08-07T05:15:34;15.80;99.90
21612;DHT22;47005;52.292;13.452;2023-08-07T05:17:59;15.80;99.90
21612;DHT22;47005;52.292;13.452;2023-08-07T05:20:25;15.80;99.90
21612;DHT22;47005;52.292;13.452;2023-08-07T05:22:51;15.80;99.90
21612;DHT22;47005;52.292;13.452;2023-08-07T05:25:16;15.80;99.90
21612;DHT22;47005;52.292;13.452;2023-08-07T05:27:45;15.80;99.90
21612;DHT22;47005;52.292;13.452;2023-08-07T05:30:12;15.90;99.90
21612;DHT22;47005;52.292;13.452;2023-08-07T05:32:38;15.90;99.90
21612;DHT22;47005;52.292;13.452;2023-08-07T05:35:05;15.80;99.90
21612;DHT22;47005;52.292;13.452;2023-08-07T05:37:30;15.80;99.90
21612;DHT22;47005;52.292;13.452;2023-08-07T05:39:57;15.80;99.90
21612;DHT22;47005;52.292;13.452;2023-08-07T05:42:23;15.80;99.90
21612;DHT22;47005;52.292;13.452;2023-08-07T05:44:48;15.80;99.90
21612;DHT22;47005;52.292;13.452;2023-08-07T05:47:14;15.80;99.90
21612;DHT22;47005;52.292;13.452;2023-08-07T05:49:40;15.80;99.90
21612;DHT22;47005;52.292;13.452;2023-08-07T05:52:05;15.80;99.90
21612;DHT22;47005;52.292;13.452;2023-08-07T05:54:31;15.90;99.90
21612;DHT22;47005;52.292;13.452;2023-08-07T05:56:57;15.90;99.90
21612;DHT22;47005;52.292;13.452;2023-08-07T05:59:23;15.90;99.90
21612;DHT22;47005;52.292;13.452;2023-08-07T06:01:48;15.90;99.90
21612;DHT22;47005;52.292;13.452;2023-08-07T06:04:14;15.90;99.90
21612;DHT22;47005;52.292;13.452;2023-08-07T06:06:40;15.90;99.90
21612;DHT22;47005;52.292;13.452;2023-08-07T06:09:06;15.90;99.90
21612;DHT22;47005;52.292;13.452;2023-08-07T06:11:32;15.90;99.90
21612;DHT22;47005;52.292;13.452;2023-08-07T06:13:58;15.90;99.90
21612;DHT22;47005;52.292;13.452;2023-08-07T06:16:24;15.90;99.90
21612;DHT22;47005;52.292;13.452;2023-08-07T06:18:50;15.90;99.90
21612;DHT22;47005;52.292;13.452;2023-08-07T06:21:16;15.90;99.90
21612;DHT22;47005;52.292;13.452;2023-08-07T06:23:41;16.00;99.90
21612;DHT22;47005;52.292;13.452;2023-08-07T06:26:07;15.90;99.90
21612;DHT22;47005;52.292;13.452;2023-08-07T06:28:34;16.00;99.90
21612;DHT22;47005;52.292;13.452;2023-08-07T06:31:06;16.00;99.90
21612;DHT22;47005;52.292;13.452;2023-08-07T06:33:32;16.00;99.90
21612;DHT22;47005;52.292;13.452;2023-08-07T06:35:59;16.00;99.90
21612;DHT22;47005;52.292;13.452;2023-08-07T06:38:24;16.10;99.90
21612;DHT22;47005;52.292;13.452;2023-08-07T06:40:50;16.10;99.90
21612;DHT22;47005;52.292;13.452;2023-08-07T06:43:16;16.10;99.90
21612;DHT22;47005;52.292;13.452;2023-08-07T06:45:42;16.20;99.90
21612;DHT22;47005;52.292;13.452;2023-08-07T06:48:07;16.20;99.90
21612;DHT22;47005;52.292;13.452;2023-08-07T06:50:33;16.20;99.90
21612;DHT22;47005;52.292;13.452;2023-08-07T06:52:59;16.20;99.90
21612;DHT22;47005;52.292;13.452;2023-08-07T06:55:25;16.20;99.90
21612;DHT22;47005;52.292;13.452;2023-08-07T06:57:50;16.30;99.90
21612;DHT22;47005;52.292;13.452;2023-08-07T07:00:16;16.30;99.90
21612;DHT22;47005;52.292;13.452;2023-08-07T07:02:42;16.30;99.90
21612;DHT22;47005;52.292;13.452;2023-08-07T07:05:08;16.30;99.90
21612;DHT22;47005;52.292;13.452;2023-08-07T07:07:33;16.40;99.90
21612;DHT22;47005;52.292;13.452;2023-08-07T07:09:59;16.40;99.90
21612;DHT22;47005;52.292;13.452;2023-08-07T07:12:26;16.40;99.90
21612;DHT22;47005;52.292;13.452;2023-08-07T07:14:52;16.40;99.90
21612;DHT22;47005;52.292;13.452;2023-08-07T07:17:18;16.40;99.90
21612;DHT22;47005;52.292;13.452;2023-08-07T07:19:43;16.50;99.90
21612;DHT22;47005;52.292;13.452;2023-08-07T07:22:09;16.50;99.90
21612;DHT22;47005;52.292;13.452;2023-08-07T07:24:34;16.50;99.90
21612;DHT22;47005;52.292;13.452;2023-08-07T07:27:00;16.50;99.90
21612;DHT22;47005;52.292;13.452;2023-08-07T07:29:26;16.60;99.90
21612;DHT22;47005;52.292;13.452;2023-08-07T07:31:51;16.60;99.90
21612;DHT22;47005;52.292;13.452;2023-08-07T07:34:19;16.60;99.90
21612;DHT22;47005;52.292;13.452;2023-08-07T07:36:44;16.60;99.90
21612;DHT22;47005;52.292;13.452;2023-08-07T07:39:10;16.70;99.90
21612;DHT22;47005;52.292;13.452;2023-08-07T07:41:36;16.70;99.90
21612;DHT22;47005;52.292;13.452;2023-08-07T07:44:02;16.70;99.90
21612;DHT22;47005;52.292;13.452;2023-08-07T07:46:28;16.70;99.90
21612;DHT22;47005;52.292;13.452;2023-08-07T07:48:54;16.80;99.90
21612;DHT22;47005;52.292;13.452;2023-08-07T07:51:21;16.80;99.90
21612;DHT22;47005;52.292;13.452;2023-08-07T07:53:47;16.80;99.90
21612;DHT22;47005;52.292;13.452;2023-08-07T07:56:12;16.80;99.90
21612;DHT22;47005;52.292;13.452;2023-08-07T07:58:38;16.90;99.90
21612;DHT22;47005;52.292;13.452;2023-08-07T08:01:04;16.90;99.90
21612;DHT22;47005;52.292;13.452;2023-08-07T08:03:29;16.90;99.90
21612;DHT22;47005;52.292;13.452;2023-08-07T08:05:55;16.90;99.90
21612;DHT22;47005;52.292;13.452;2023-08-07T08:08:20;16.90;99.90
21612;DHT22;47005;52.292;13.452;2023-08-07T08:10:46;17.00;99.90
21612;DHT22;47005;52.292;13.452;2023-08-07T08:13:14;17.00;99.90
21612;DHT22;47005;52.292;13.452;2023-08-07T08:15:40;17.00;99.90
21612;DHT22;47005;52.292;13.452;2023-08-07T08:18:05;17.00;99.90
21612;DHT22;47005;52.292;13.452;2023-08-07T08:20:31;17.10;99.90
21612;DHT22;47005;52.292;13.452;2023-08-07T08:22:58;17.10;99.90
21612;DHT22;47005;52.292;13.452;2023-08-07T08:25:23;17.10;99.90
21612;DHT22;47005;52.292;13.452;2023-08-07T08:27:49;17.10;99.90
21612;DHT22;47005;52.292;13.452;2023-08-07T08:30:16;17.10;99.90
21612;DHT22;47005;52.292;13.452;2023-08-07T08:32:43;17.10;99.90
21612;DHT22;47005;52.292;13.452;2023-08-07T08:35:08;17.20;99.90
21612;DHT22;47005;52.292;13.452;2023-08-07T08:37:34;17.20;99.90
21612;DHT22;47005;52.292;13.452;2023-08-07T08:40:00;17.20;99.90
21612;DHT22;47005;52.292;13.452;2023-08-07T08:42:26;17.20;99.90
21612;DHT22;47005;52.292;13.452;2023-08-07T08:44:54;17.20;99.90
21612;DHT22;47005;52.292;13.452;2023-08-07T08:47:22;17.20;99.90
21612;DHT22;47005;52.292;13.452;2023-08-07T08:49:51;17.30;99.90
21612;DHT22;47005;52.292;13.452;2023-08-07T08:52:20;17.30;99.90
21612;DHT22;47005;52.292;13.452;2023-08-07T08:54:47;17.30;99.90
21612;DHT22;47005;52.292;13.452;2023-08-07T08:57:13;17.30;99.90
21612;DHT22;47005;52.292;13.452;2023-08-07T08:59:40;17.40;99.90
21612;DHT22;47005;52.292;13.452;2023-08-07T09:02:07;17.40;99.90
21612;DHT22;47005;52.292;13.452;2023-08-07T09:04:33;17.40;99.90
21612;DHT22;47005;52.292;13.452;2023-08-07T09:07:00;17.40;99.90
21612;DHT22;47005;52.292;13.452;2023-08-07T09:09:27;17.50;99.90
21612;DHT22;47005;52.292;13.452;2023-08-07T09:11:53;17.50;99.90
21612;DHT22;47005;52.292;13.452;2023-08-07T09:14:22;17.50;99.90
21612;DHT22;47005;52.292;13.452;2023-08-07T09:16:50;17.50;99.90
21612;DHT22;47005;52.292;13.452;2023-08-07T09:19:16;17.50;99.90
21612;DHT22;47005;52.292;13.452;2023-08-07T09:21:42;17.50;99.90
21612;DHT22;47005;52.292;13.452;2023-08-07T09:24:07;17.50;99.90
21612;DHT22;47005;52.292;13.452;2023-08-07T09:26:33;17.60;99.90
21612;DHT22;47005;52.292;13.452;2023-08-07T09:28:59;17.60;99.90
21612;DHT22;47005;52.292;13.452;2023-08-07T09:31:26;17.60;99.90
21612;DHT22;47005;52.292;13.452;2023-08-07T09:33:52;17.60;99.90
21612;DHT22;47005;52.292;13.452;2023-08-07T09:36:18;17.60;99.90
21612;DHT22;47005;52.292;13.452;2023-08-07T09:38:44;17.60;99.90
21612;DHT22;47005;52.292;13.452;2023-08-07T09:41:17;17.70;99.90
21612;DHT22;47005;52.292;13.452;2023-08-07T09:43:43;17.70;99.90
21612;DHT22;47005;52.292;13.452;2023-08-07T09:46:09;17.70;99.90
21612;DHT22;47005;52.292;13.452;2023-08-07T09:48:42;17.70;99.90
21612;DHT22;47005;52.292;13.452;2023-08-07T09:51:08;17.70;99.90
21612;DHT22;47005;52.292;13.452;2023-08-07T09:53:34;17.70;99.90
21612;DHT22;47005;52.292;13.452;2023-08-07T09:56:00;17.80;99.90
21612;DHT22;47005;52.292;13.452;2023-08-07T09:58:26;17.80;99.90
21612;DHT22;47005;52.292;13.452;2023-08-07T10:00:52;17.80;99.90
21612;DHT22;47005;52.292;13.452;2023-08-07T10:03:25;17.80;99.90
21612;DHT22;47005;52.292;13.452;2023-08-07T10:05:51;17.90;99.90
21612;DHT22;47005;52.292;13.452;2023-08-07T10:08:18;17.90;99.90
21612;DHT22;47005;52.292;13.452;2023-08-07T10:10:44;17.90;99.90
21612;DHT22;47005;52.292;13.452;2023-08-07T10:13:13;18.00;99.90
21612;DHT22;47005;52.292;13.452;2023-08-07T10:15:40;18.00;99.90
21612;DHT22;47005;52.292;13.452;2023-08-07T10:18:08;18.00;99.90
21612;DHT22;47005;52.292;13.452;2023-08-07T10:20:34;18.00;99.90
21612;DHT22;47005;52.292;13.452;2023-08-07T10:23:09;18.00;99.90
21612;DHT22;47005;52.292;13.452;2023-08-07T10:25:39;18.00;99.90
21612;DHT22;47005;52.292;13.452;2023-08-07T10:28:09;18.10;99.90
21612;DHT22;47005;52.292;13.452;2023-08-07T10:30:38;18.10;99.90
21612;DHT22;47005;52.292;13.452;2023-08-07T10:33:04;18.10;99.90
21612;DHT22;47005;52.292;13.452;2023-08-07T10:35:32;18.10;99.90
21612;DHT22;47005;52.292;13.452;2023-08-07T10:38:09;18.10;99.90
21612;DHT22;47005;52.292;13.452;2023-08-07T10:43:29;18.20;99.90
21612;DHT22;47005;52.292;13.452;2023-08-07T10:46:24;18.20;99.90
21612;DHT22;47005;52.292;13.452;2023-08-07T10:48:55;18.30;99.90
21612;DHT22;47005;52.292;13.452;2023-08-07T10:51:28;18.30;99.90
21612;DHT22;47005;52.292;13.452;2023-08-07T10:53:56;18.30;99.90
21612;DHT22;47005;52.292;13.452;2023-08-07T10:58:55;18.40;99.90
21612;DHT22;47005;52.292;13.452;2023-08-07T11:01:43;18.40;99.90
21612;DHT22;47005;52.292;13.452;2023-08-07T11:04:12;18.40;99.90
21612;DHT22;47005;52.292;13.452;2023-08-07T11:06:40;18.50;99.90
21612;DHT22;47005;52.292;13.452;2023-08-07T11:09:07;18.40;99.90
21612;DHT22;47005;52.292;13.452;2023-08-07T11:11:41;18.50;99.90
21612;DHT22;47005;52.292;13.452;2023-08-07T11:14:11;18.50;99.90
21612;DHT22;47005;52.292;13.452;2023-08-07T11:16:38;18.50;99.90
21612;DHT22;47005;52.292;13.452;2023-08-07T11:19:04;18.50;99.90
21612;DHT22;47005;52.292;13.452;2023-08-07T11:21:33;18.50;99.90
21612;DHT22;47005;52.292;13.452;2023-08-07T11:23:59;18.50;99.90
21612;DHT22;47005;52.292;13.452;2023-08-07T11:26:25;18.50;99.90
21612;DHT22;47005;52.292;13.452;2023-08-07T11:28:53;18.50;99.90
21612;DHT22;47005;52.292;13.452;2023-08-07T11:31:19;18.50;99.90
21612;DHT22;47005;52.292;13.452;2023-08-07T11:33:45;18.50;99.90
21612;DHT22;47005;52.292;13.452;2023-08-07T11:36:14;18.60;99.90
21612;DHT22;47005;52.292;13.452;2023-08-07T11:38:43;18.60;99.90
21612;DHT22;47005;52.292;13.452;2023-08-07T11:41:14;18.60;99.90
21612;DHT22;47005;52.292;13.452;2023-08-07T11:43:40;18.60;99.90
21612;DHT22;47005;52.292;13.452;2023-08-07T11:46:11;18.60;99.90
21612;DHT22;47005;52.292;13.452;2023-08-07T11:48:38;18.60;99.90
21612;DHT22;47005;52.292;13.452;2023-08-07T11:51:05;18.60;99.90
21612;DHT22;47005;52.292;13.452;2023-08-07T11:53:33;18.50;99.90
21612;DHT22;47005;52.292;13.452;2023-08-07T11:56:07;18.40;99.90
21612;DHT22;47005;52.292;13.452;2023-08-07T11:58:42;18.40;99.90
21612;DHT22;47005;52.292;13.452;2023-08-07T12:01:13;18.30;99.90
21612;DHT22;47005;52.292;13.452;2023-08-07T12:03:42;18.30;99.90
21612;DHT22;47005;52.292;13.452;2023-08-07T12:06:09;18.30;99.90
21612;DHT22;47005;52.292;13.452;2023-08-07T12:08:36;18.30;99.90
21612;DHT22;47005;52.292;13.452;2023-08-07T12:11:06;18.30;99.90
21612;DHT22;47005;52.292;13.452;2023-08-07T12:13:32;18.30;99.90
21612;DHT22;47005;52.292;13.452;2023-08-07T12:16:01;18.30;99.90
21612;DHT22;47005;52.292;13.452;2023-08-07T12:18:27;18.30;99.90
21612;DHT22;47005;52.292;13.452;2023-08-07T12:21:14;18.30;99.90
21612;DHT22;47005;52.292;13.452;2023-08-07T12:23:40;18.30;99.90
21612;DHT22;47005;52.292;13.452;2023-08-07T12:26:06;18.40;99.90
21612;DHT22;47005;52.292;13.452;2023-08-07T12:28:34;18.40;99.90
21612;DHT22;47005;52.292;13.452;2023-08-07T12:30:59;18.50;99.90
21612;DHT22;47005;52.292;13.452;2023-08-07T12:33:25;18.60;99.90
21612;DHT22;47005;52.292;13.452;2023-08-07T12:35:51;18.60;99.90
21612;DHT22;47005;52.292;13.452;2023-08-07T12:38:18;18.70;99.90
21612;DHT22;47005;52.292;13.452;2023-08-07T12:40:44;18.80;99.90
21612;DHT22;47005;52.292;13.452;2023-08-07T12:43:10;18.80;99.90
21612;DHT22;47005;52.292;13.452;2023-08-07T12:45:36;18.90;99.90
21612;DHT22;47005;52.292;13.452;2023-08-07T12:48:02;18.90;99.90
21612;DHT22;47005;52.292;13.452;2023-08-07T12:50:28;18.90;99.90
21612;DHT22;47005;52.292;13.452;2023-08-07T12:52:54;18.90;99.90
21612;DHT22;47005;52.292;13.452;2023-08-07T12:55:20;18.90;99.90
21612;DHT22;47005;52.292;13.452;2023-08-07T12:57:46;18.90;99.90
21612;DHT22;47005;52.292;13.452;2023-08-07T13:00:12;18.70;99.90
21612;DHT22;47005;52.292;13.452;2023-08-07T13:02:45;18.60;99.90
21612;DHT22;47005;52.292;13.452;2023-08-07T13:05:11;18.40;99.90
21612;DHT22;47005;52.292;13.452;2023-08-07T13:07:38;18.30;99.90
21612;DHT22;47005;52.292;13.452;2023-08-07T13:10:05;18.20;99.90
21612;DHT22;47005;52.292;13.452;2023-08-07T13:12:36;18.00;99.90
21612;DHT22;47005;52.292;13.452;2023-08-07T13:15:03;17.90;99.90
21612;DHT22;47005;52.292;13.452;2023-08-07T13:17:30;17.80;99.90
21612;DHT22;47005;52.292;13.452;2023-08-07T13:19:56;17.80;99.90
21612;DHT22;47005;52.292;13.452;2023-08-07T13:22:22;17.70;99.90
21612;DHT22;47005;52.292;13.452;2023-08-07T13:24:47;17.70;99.90
21612;DHT22;47005;52.292;13.452;2023-08-07T13:27:13;17.70;99.90
21612;DHT22;47005;52.292;13.452;2023-08-07T13:29:38;17.60;99.90
21612;DHT22;47005;52.292;13.452;2023-08-07T13:32:05;17.60;99.90
21612;DHT22;47005;52.292;13.452;2023-08-07T13:34:37;17.60;99.90
21612;DHT22;47005;52.292;13.452;2023-08-07T13:37:04;17.60;99.90
21612;DHT22;47005;52.292;13.452;2023-08-07T13:39:31;17.60;99.90
21612;DHT22;47005;52.292;13.452;2023-08-07T13:41:57;17.70;99.90
21612;DHT22;47005;52.292;13.452;2023-08-07T13:44:22;17.70;99.90
21612;DHT22;47005;52.292;13.452;2023-08-07T13:46:48;17.70;99.90
21612;DHT22;47005;52.292;13.452;2023-08-07T13:49:14;17.70;99.90
21612;DHT22;47005;52.292;13.452;2023-08-07T13:51:43;17.70;99.90
21612;DHT22;47005;52.292;13.452;2023-08-07T13:54:08;17.70;99.90
21612;DHT22;47005;52.292;13.452;2023-08-07T13:56:34;17.70;99.90
21612;DHT22;47005;52.292;13.452;2023-08-07T13:59:00;17.80;99.90
21612;DHT22;47005;52.292;13.452;2023-08-07T14:01:26;17.80;99.90
21612;DHT22;47005;52.292;13.452;2023-08-07T14:03:53;17.80;99.90
21612;DHT22;47005;52.292;13.452;2023-08-07T14:06:18;17.90;99.90
21612;DHT22;47005;52.292;13.452;2023-08-07T14:08:44;17.90;99.90
21612;DHT22;47005;52.292;13.452;2023-08-07T14:11:10;18.00;99.90
21612;DHT22;47005;52.292;13.452;2023-08-07T14:13:37;18.00;99.90
21612;DHT22;47005;52.292;13.452;2023-08-07T14:16:02;18.00;99.90
21612;DHT22;47005;52.292;13.452;2023-08-07T14:18:28;18.10;99.90
21612;DHT22;47005;52.292;13.452;2023-08-07T14:20:54;18.10;99.90
21612;DHT22;47005;52.292;13.452;2023-08-07T14:23:19;18.10;99.90
21612;DHT22;47005;52.292;13.452;2023-08-07T14:25:45;18.20;99.90
21612;DHT22;47005;52.292;13.452;2023-08-07T14:28:14;18.20;99.90
21612;DHT22;47005;52.292;13.452;2023-08-07T14:30:39;18.30;99.90
21612;DHT22;47005;52.292;13.452;2023-08-07T14:33:05;18.30;99.90
21612;DHT22;47005;52.292;13.452;2023-08-07T14:35:30;18.30;99.90
21612;DHT22;47005;52.292;13.452;2023-08-07T14:37:56;18.30;99.90
21612;DHT22;47005;52.292;13.452;2023-08-07T14:40:21;18.30;99.90
21612;DHT22;47005;52.292;13.452;2023-08-07T14:42:47;18.30;99.90
21612;DHT22;47005;52.292;13.452;2023-08-07T14:45:13;18.40;99.90
21612;DHT22;47005;52.292;13.452;2023-08-07T14:47:38;18.40;99.90
21612;DHT22;47005;52.292;13.452;2023-08-07T14:50:04;18.40;99.90
21612;DHT22;47005;52.292;13.452;2023-08-07T14:52:30;18.40;99.90
21612;DHT22;47005;52.292;13.452;2023-08-07T14:54:56;18.40;99.90
21612;DHT22;47005;52.292;13.452;2023-08-07T14:57:23;18.40;99.90
21612;DHT22;47005;52.292;13.452;2023-08-07T14:59:48;18.40;99.90
21612;DHT22;47005;52.292;13.452;2023-08-07T15:02:14;18.40;99.90
21612;DHT22;47005;52.292;13.452;2023-08-07T15:04:39;18.30;99.90
21612;DHT22;47005;52.292;13.452;2023-08-07T15:07:05;18.30;99.90
21612;DHT22;47005;52.292;13.452;2023-08-07T15:09:31;18.30;99.90
21612;DHT22;47005;52.292;13.452;2023-08-07T15:11:56;18.30;99.90
21612;DHT22;47005;52.292;13.452;2023-08-07T15:14:22;18.30;99.90
21612;DHT22;47005;52.292;13.452;2023-08-07T15:16:48;18.30;99.90
21612;DHT22;47005;52.292;13.452;2023-08-07T15:19:13;18.30;99.90